createdAt,value
2022-08-20T00:00:00.897Z,21.30
2022-08-20T00:02:28.890Z,21.30
2022-08-20T00:04:56.813Z,21.30
2022-08-20T00:07:24.890Z,21.30
2022-08-20T00:09:52.873Z,21.30
2022-08-20T00:12:21.274Z,21.30
2022-08-20T00:14:49.754Z,21.40
2022-08-20T00:17:19.334Z,21.30
2022-08-20T00:19:49.025Z,21.30
2022-08-20T00:22:17.154Z,21.30
2022-08-20T00:24:45.273Z,21.20
2022-08-20T00:27:13.749Z,21.30
2022-08-20T00:29:41.734Z,21.30
2022-08-20T00:32:09.704Z,21.30
2022-08-20T00:34:39.219Z,21.30
2022-08-20T00:37:08.565Z,21.30
2022-08-20T00:39:36.829Z,21.30
2022-08-20T00:42:07.976Z,21.30
2022-08-20T00:44:36.641Z,21.30
2022-08-20T00:47:06.962Z,21.30
2022-08-20T00:49:35.142Z,21.30
2022-08-20T00:52:10.672Z,21.30
2022-08-20T00:54:43.160Z,21.30
2022-08-20T00:57:23.858Z,21.30
2022-08-20T00:59:53.699Z,21.30
2022-08-20T01:02:25.519Z,21.20
2022-08-20T01:04:54.660Z,21.30
2022-08-20T01:07:33.461Z,21.20
2022-08-20T01:10:02.555Z,21.20
2022-08-20T01:12:31.394Z,21.10
2022-08-20T01:15:02.441Z,21.00
2022-08-20T01:17:36.823Z,21.10
2022-08-20T01:20:09.510Z,21.00
2022-08-20T01:23:00.293Z,20.90
2022-08-20T01:25:34.369Z,20.80
2022-08-20T01:28:07.031Z,20.70
2022-08-20T01:30:36.223Z,20.60
2022-08-20T01:33:04.777Z,20.50
2022-08-20T01:35:37.026Z,20.40
2022-08-20T01:38:05.868Z,20.40
2022-08-20T01:41:02.335Z,20.20
2022-08-20T01:43:32.322Z,20.30
2022-08-20T01:46:05.846Z,20.40
2022-08-20T01:48:34.139Z,20.30
2022-08-20T01:51:07.827Z,20.90
2022-08-20T01:53:41.906Z,20.20
2022-08-20T01:56:14.243Z,20.20
2022-08-20T01:58:46.545Z,20.20
2022-08-20T02:01:22.618Z,20.20
2022-08-20T02:03:51.453Z,20.20
2022-08-20T02:06:20.521Z,20.20
2022-08-20T02:08:49.341Z,20.10
2022-08-20T02:11:19.203Z,20.20
2022-08-20T02:13:52.809Z,20.20
2022-08-20T02:16:29.261Z,20.30
2022-08-20T02:18:59.891Z,20.20
2022-08-20T02:21:32.312Z,20.20
2022-08-20T02:24:00.911Z,20.10
2022-08-20T02:26:30.871Z,20.20
2022-08-20T02:29:01.094Z,20.10
2022-08-20T02:31:34.712Z,20.10
2022-08-20T02:34:21.610Z,20.10
2022-08-20T02:36:54.374Z,20.10
2022-08-20T02:39:22.654Z,20.10
2022-08-20T02:41:52.273Z,20.00
2022-08-20T02:44:22.190Z,20.00
2022-08-20T02:46:52.083Z,20.00
2022-08-20T02:49:21.096Z,20.00
2022-08-20T02:51:49.677Z,19.90
2022-08-20T02:54:17.952Z,19.90
2022-08-20T02:56:46.324Z,19.90
2022-08-20T02:59:19.724Z,19.90
2022-08-20T03:01:59.527Z,19.80
2022-08-20T03:04:29.181Z,19.80
2022-08-20T03:06:57.967Z,20.10
2022-08-20T03:09:26.154Z,19.90
2022-08-20T03:11:54.419Z,19.90
2022-08-20T03:14:22.803Z,19.90
2022-08-20T03:16:52.550Z,19.80
2022-08-20T03:19:21.491Z,19.80
2022-08-20T03:21:50.197Z,19.70
2022-08-20T03:24:18.715Z,19.70
2022-08-20T03:26:47.260Z,19.70
2022-08-20T03:29:15.903Z,19.70
2022-08-20T03:31:45.009Z,19.80
2022-08-20T03:34:14.549Z,19.70
2022-08-20T03:36:42.779Z,19.70
2022-08-20T03:39:13.342Z,19.60
2022-08-20T03:41:41.821Z,19.60
2022-08-20T03:44:10.240Z,19.60
2022-08-20T03:46:40.718Z,19.60
2022-08-20T03:49:08.734Z,19.60
2022-08-20T03:51:58.198Z,19.50
2022-08-20T03:54:27.449Z,19.50
2022-08-20T03:57:05.153Z,19.40
2022-08-20T03:59:40.915Z,19.40
2022-08-20T04:02:09.140Z,19.40
2022-08-20T04:04:37.126Z,19.30
2022-08-20T04:07:17.268Z,19.30
2022-08-20T04:09:45.957Z,19.30
2022-08-20T04:12:13.968Z,19.30
2022-08-20T04:14:42.965Z,19.20
2022-08-20T04:17:16.339Z,19.20
2022-08-20T04:19:45.993Z,19.20
2022-08-20T04:22:15.541Z,19.20
2022-08-20T04:24:44.420Z,19.10
2022-08-20T04:27:15.718Z,19.20
2022-08-20T04:29:45.734Z,19.20
2022-08-20T04:32:14.712Z,19.20
2022-08-20T04:34:47.382Z,19.10
2022-08-20T04:37:22.137Z,19.10
2022-08-20T04:40:04.935Z,19.10
2022-08-20T04:42:33.050Z,19.00
2022-08-20T04:45:02.281Z,19.00
2022-08-20T04:47:34.393Z,19.00
2022-08-20T04:50:03.144Z,19.00
2022-08-20T04:52:33.030Z,19.00
2022-08-20T04:55:03.311Z,19.00
2022-08-20T04:57:35.328Z,18.90
2022-08-20T05:00:03.474Z,18.90
2022-08-20T05:02:31.343Z,18.90
2022-08-20T05:04:59.603Z,18.80
2022-08-20T05:07:27.742Z,18.80
2022-08-20T05:09:57.085Z,18.70
2022-08-20T05:12:25.337Z,18.80
2022-08-20T05:14:54.361Z,18.80
2022-08-20T05:17:24.031Z,18.70
2022-08-20T05:19:54.005Z,18.70
2022-08-20T05:22:23.242Z,18.70
2022-08-20T05:24:51.786Z,18.70
2022-08-20T05:27:24.661Z,18.70
2022-08-20T05:29:53.286Z,18.80
2022-08-20T05:32:22.969Z,18.80
2022-08-20T05:34:51.875Z,18.80
2022-08-20T05:37:19.957Z,18.90
2022-08-20T05:39:48.596Z,18.90
2022-08-20T05:42:17.661Z,19.00
2022-08-20T05:44:47.445Z,19.10
2022-08-20T05:47:18.435Z,19.30
2022-08-20T05:49:48.801Z,19.30
2022-08-20T05:52:18.685Z,19.60
2022-08-20T05:54:48.739Z,19.80
2022-08-20T05:57:20.816Z,20.40
2022-08-20T05:59:50.284Z,20.90
2022-08-20T06:02:35.600Z,21.20
2022-08-20T06:05:04.268Z,21.70
2022-08-20T06:07:34.192Z,22.40
2022-08-20T06:10:04.731Z,23.20
2022-08-20T06:12:33.086Z,24.20
2022-08-20T06:15:03.421Z,25.30
2022-08-20T06:17:39.360Z,25.70
2022-08-20T06:20:23.153Z,26.10
2022-08-20T06:22:53.715Z,26.70
2022-08-20T06:25:23.469Z,27.40
2022-08-20T06:27:51.833Z,27.40
2022-08-20T06:30:21.625Z,27.40
2022-08-20T06:32:51.376Z,27.90
2022-08-20T06:35:20.540Z,28.00
2022-08-20T06:37:53.237Z,28.40
2022-08-20T06:40:24.476Z,28.40
2022-08-20T06:42:53.019Z,29.00
2022-08-20T06:45:25.198Z,29.10
2022-08-20T06:47:55.929Z,29.20
2022-08-20T06:50:29.673Z,28.70
2022-08-20T06:52:58.051Z,28.70
2022-08-20T06:55:27.110Z,28.30
2022-08-20T06:58:02.808Z,28.20
2022-08-20T07:00:36.464Z,27.80
2022-08-20T07:03:06.376Z,27.20
2022-08-20T07:05:37.036Z,27.00
2022-08-20T07:08:06.260Z,27.00
2022-08-20T07:10:34.342Z,26.80
2022-08-20T07:13:02.460Z,26.30
2022-08-20T07:15:32.307Z,26.30
2022-08-20T07:18:06.021Z,26.40
2022-08-20T07:20:37.630Z,26.50
2022-08-20T07:23:06.921Z,27.00
2022-08-20T07:25:38.222Z,27.40
2022-08-20T07:28:13.394Z,27.80
2022-08-20T07:31:13.476Z,27.90
2022-08-20T07:33:44.479Z,28.20
2022-08-20T07:36:15.040Z,28.50
2022-08-20T07:38:45.850Z,28.60
2022-08-20T07:41:15.262Z,28.80
2022-08-20T07:43:45.962Z,29.30
2022-08-20T07:46:20.636Z,29.50
2022-08-20T07:48:52.075Z,29.80
2022-08-20T07:51:24.423Z,30.00
2022-08-20T07:53:56.904Z,30.00
2022-08-20T07:56:29.465Z,30.20
2022-08-20T07:59:02.356Z,30.50
2022-08-20T08:01:33.253Z,30.70
2022-08-20T08:04:02.954Z,30.10
2022-08-20T08:06:31.915Z,30.60
2022-08-20T08:09:10.488Z,30.50
2022-08-20T08:11:50.405Z,30.60
2022-08-20T08:14:32.521Z,30.70
2022-08-20T08:17:05.733Z,31.00
2022-08-20T08:19:44.059Z,30.90
2022-08-20T08:22:17.838Z,30.80
2022-08-20T08:24:57.599Z,30.50
2022-08-20T08:27:27.277Z,30.30
2022-08-20T08:29:59.256Z,29.50
2022-08-20T08:32:36.968Z,29.40
2022-08-20T08:35:09.996Z,29.20
2022-08-20T08:37:38.931Z,29.00
2022-08-20T08:40:10.879Z,29.00
2022-08-20T08:42:56.113Z,28.80
2022-08-20T08:45:26.988Z,28.30
2022-08-20T08:47:59.494Z,27.90
2022-08-20T08:50:54.359Z,27.60
2022-08-20T08:53:28.941Z,27.50
2022-08-20T08:56:04.183Z,27.20
2022-08-20T08:58:34.110Z,26.90
2022-08-20T09:01:13.956Z,26.70
2022-08-20T09:04:07.287Z,26.50
2022-08-20T09:06:35.515Z,26.20
2022-08-20T09:09:07.819Z,25.90
2022-08-20T09:11:54.250Z,25.70
2022-08-20T09:14:25.395Z,25.50
2022-08-20T09:16:57.081Z,25.60
2022-08-20T09:19:33.210Z,25.70
2022-08-20T09:22:07.667Z,25.90
2022-08-20T09:24:35.733Z,25.80
2022-08-20T09:27:05.705Z,25.80
2022-08-20T09:29:34.147Z,25.90
2022-08-20T09:32:09.328Z,25.90
2022-08-20T09:34:41.354Z,25.80
2022-08-20T09:37:11.508Z,25.90
2022-08-20T09:39:40.580Z,26.00
2022-08-20T09:42:11.412Z,25.90
2022-08-20T09:44:39.806Z,25.80
2022-08-20T09:47:08.103Z,25.70
2022-08-20T09:49:39.397Z,25.50
2022-08-20T09:52:11.585Z,25.30
2022-08-20T09:54:42.317Z,25.30
2022-08-20T09:57:20.320Z,25.40
2022-08-20T09:59:54.432Z,25.40
2022-08-20T10:02:22.453Z,25.40
2022-08-20T10:04:51.168Z,25.50
2022-08-20T10:07:22.550Z,25.50
2022-08-20T10:09:51.392Z,25.50
2022-08-20T10:12:23.834Z,25.40
2022-08-20T10:15:02.851Z,25.40
2022-08-20T10:17:30.865Z,25.60
2022-08-20T10:19:59.114Z,25.60
2022-08-20T10:22:29.851Z,25.60
2022-08-20T10:25:00.511Z,25.70
2022-08-20T10:27:28.925Z,25.70
2022-08-20T10:29:58.945Z,25.70
2022-08-20T10:32:27.275Z,25.60
2022-08-20T10:34:55.220Z,25.60
2022-08-20T10:37:25.721Z,25.40
2022-08-20T10:39:58.623Z,25.40
2022-08-20T10:42:37.950Z,25.10
2022-08-20T10:45:18.657Z,25.10
2022-08-20T10:47:52.724Z,24.80
2022-08-20T10:50:22.340Z,24.70
2022-08-20T10:52:50.748Z,24.70
2022-08-20T10:55:22.161Z,24.70
2022-08-20T10:57:51.867Z,24.80
2022-08-20T11:00:20.935Z,24.90
2022-08-20T11:02:48.905Z,25.10
2022-08-20T11:05:17.186Z,25.30
2022-08-20T11:07:55.695Z,25.50
2022-08-20T11:10:28.128Z,25.70
2022-08-20T11:12:56.471Z,25.90
2022-08-20T11:15:35.439Z,26.10
2022-08-20T11:18:08.687Z,26.30
2022-08-20T11:20:46.006Z,26.40
2022-08-20T11:23:17.722Z,26.30
2022-08-20T11:25:50.010Z,26.30
2022-08-20T11:28:31.259Z,26.10
2022-08-20T11:31:01.927Z,26.10
2022-08-20T11:33:38.766Z,25.90
2022-08-20T11:36:09.062Z,25.80
2022-08-20T11:38:42.640Z,25.80
2022-08-20T11:41:13.769Z,25.70
2022-08-20T11:43:59.473Z,25.70
2022-08-20T11:46:33.019Z,25.80
2022-08-20T11:49:01.634Z,25.80
2022-08-20T11:51:49.407Z,25.80
2022-08-20T11:54:21.362Z,25.90
2022-08-20T11:56:51.733Z,26.00
2022-08-20T11:59:21.265Z,26.10
2022-08-20T12:02:03.090Z,26.10
2022-08-20T12:04:35.230Z,26.10
2022-08-20T12:07:15.811Z,26.00
2022-08-20T12:09:51.017Z,26.10
2022-08-20T12:12:26.447Z,26.00
2022-08-20T12:14:57.504Z,25.90
2022-08-20T12:17:32.813Z,25.80
2022-08-20T12:20:03.192Z,25.80
2022-08-20T12:22:32.144Z,25.60
2022-08-20T12:25:00.297Z,25.70
2022-08-20T12:27:36.935Z,25.70
2022-08-20T12:30:08.170Z,25.80
2022-08-20T12:32:37.214Z,25.70
2022-08-20T12:35:10.715Z,25.70
2022-08-20T12:37:44.213Z,25.70
2022-08-20T12:40:31.706Z,25.70
2022-08-20T12:43:12.970Z,25.70
2022-08-20T12:45:43.708Z,25.80
2022-08-20T12:48:14.743Z,25.90
2022-08-20T12:50:45.774Z,25.90
2022-08-20T12:53:13.979Z,25.70
2022-08-20T12:55:42.256Z,25.70
2022-08-20T12:58:21.007Z,25.60
2022-08-20T13:00:50.844Z,25.50
2022-08-20T13:03:28.059Z,25.30
2022-08-20T13:06:12.946Z,25.30
2022-08-20T13:08:41.151Z,25.10
2022-08-20T13:11:09.094Z,25.00
2022-08-20T13:13:44.331Z,25.00
2022-08-20T13:16:12.584Z,25.00
2022-08-20T13:18:41.124Z,24.90
2022-08-20T13:21:10.183Z,24.90
2022-08-20T13:23:47.710Z,24.90
2022-08-20T13:26:22.049Z,25.00
2022-08-20T13:28:52.040Z,25.00
2022-08-20T13:31:23.378Z,25.10
2022-08-20T13:33:57.464Z,25.10
2022-08-20T13:36:32.326Z,25.00
2022-08-20T13:39:02.384Z,25.00
2022-08-20T13:41:30.438Z,25.00
2022-08-20T13:44:06.847Z,24.80
2022-08-20T13:46:34.955Z,25.00
2022-08-20T13:49:06.628Z,24.90
2022-08-20T13:51:46.091Z,24.90
2022-08-20T13:54:27.168Z,25.00
2022-08-20T13:57:07.432Z,24.90
2022-08-20T13:59:50.474Z,24.90
2022-08-20T14:02:23.066Z,25.00
2022-08-20T14:04:53.931Z,25.00
2022-08-20T14:07:32.802Z,25.00
2022-08-20T14:10:10.860Z,25.00
2022-08-20T14:12:39.344Z,25.00
2022-08-20T14:15:10.801Z,25.00
2022-08-20T14:17:51.777Z,25.20
2022-08-20T14:20:29.133Z,25.00
2022-08-20T14:22:58.263Z,25.00
2022-08-20T14:25:30.342Z,24.90
2022-08-20T14:28:10.408Z,24.90
2022-08-20T14:30:40.564Z,24.80
2022-08-20T14:33:10.338Z,24.70
2022-08-20T14:35:38.878Z,24.70
2022-08-20T14:38:08.030Z,24.60
2022-08-20T14:40:40.012Z,24.60
2022-08-20T14:43:10.178Z,24.50
2022-08-20T14:45:40.710Z,24.40
2022-08-20T14:48:11.406Z,24.30
2022-08-20T14:50:44.885Z,24.20
2022-08-20T14:53:15.633Z,24.20
2022-08-20T14:55:48.996Z,24.20
2022-08-20T14:58:20.887Z,24.20
2022-08-20T15:00:54.334Z,24.20
2022-08-20T15:03:27.219Z,24.10
2022-08-20T15:05:57.289Z,24.10
2022-08-20T15:08:28.814Z,24.10
2022-08-20T15:11:00.584Z,24.20
2022-08-20T15:13:31.860Z,24.20
2022-08-20T15:16:03.288Z,24.10
2022-08-20T15:18:35.965Z,24.10
2022-08-20T15:21:10.183Z,24.00
2022-08-20T15:23:38.642Z,24.00
2022-08-20T15:26:11.106Z,24.10
2022-08-20T15:28:39.109Z,24.00
2022-08-20T15:31:12.269Z,24.00
2022-08-20T15:33:43.059Z,24.00
2022-08-20T15:36:11.365Z,24.00
2022-08-20T15:38:40.107Z,23.90
2022-08-20T15:41:11.580Z,23.90
2022-08-20T15:43:39.621Z,24.00
2022-08-20T15:46:12.957Z,24.00
2022-08-20T15:48:44.522Z,24.00
2022-08-20T15:51:23.782Z,23.90
2022-08-20T15:54:00.521Z,23.90
2022-08-20T15:56:49.836Z,23.90
2022-08-20T15:59:36.622Z,23.90
2022-08-20T16:02:25.664Z,23.90
2022-08-20T16:05:11.926Z,23.80
2022-08-20T16:07:49.909Z,23.80
2022-08-20T16:10:23.696Z,23.70
2022-08-20T16:12:55.855Z,23.70
2022-08-20T16:15:30.486Z,23.70
2022-08-20T16:18:11.494Z,23.70
2022-08-20T16:20:43.246Z,23.70
2022-08-20T16:23:18.869Z,23.70
2022-08-20T16:26:03.821Z,23.60
2022-08-20T16:28:42.107Z,23.60
2022-08-20T16:31:19.180Z,23.50
2022-08-20T16:34:04.114Z,23.60
2022-08-20T16:36:42.865Z,23.60
2022-08-20T16:39:18.772Z,23.50
2022-08-20T16:41:49.730Z,23.50
2022-08-20T16:44:29.268Z,23.50
2022-08-20T16:47:23.385Z,23.50
2022-08-20T16:50:01.229Z,23.50
2022-08-20T16:52:29.511Z,23.40
2022-08-20T16:55:01.538Z,23.30
2022-08-20T16:57:30.033Z,23.30
2022-08-20T17:00:02.875Z,23.30
2022-08-20T17:02:31.164Z,23.20
2022-08-20T17:05:05.580Z,23.30
2022-08-20T17:07:46.165Z,23.20
2022-08-20T17:10:20.408Z,23.20
2022-08-20T17:12:55.479Z,23.10
2022-08-20T17:15:26.924Z,23.10
2022-08-20T17:17:58.236Z,23.10
2022-08-20T17:20:29.250Z,23.00
2022-08-20T17:23:19.036Z,23.00
2022-08-20T17:25:58.124Z,22.60
2022-08-20T17:28:28.381Z,22.90
2022-08-20T17:30:59.858Z,22.80
2022-08-20T17:33:31.443Z,22.80
2022-08-20T17:36:06.627Z,22.70
2022-08-20T17:38:50.848Z,22.70
2022-08-20T17:41:24.417Z,22.60
2022-08-20T17:44:00.282Z,22.60
2022-08-20T17:46:30.889Z,22.50
2022-08-20T17:49:02.674Z,22.50
2022-08-20T17:51:37.936Z,22.50
2022-08-20T17:54:15.915Z,22.50
2022-08-20T17:56:45.452Z,22.40
2022-08-20T17:59:36.370Z,22.30
2022-08-20T18:02:23.756Z,22.30
2022-08-20T18:04:55.384Z,22.20
2022-08-20T18:07:30.610Z,22.10
2022-08-20T18:10:05.039Z,22.10
2022-08-20T18:12:40.355Z,22.00
2022-08-20T18:15:13.889Z,22.00
2022-08-20T18:18:09.184Z,21.90
2022-08-20T18:21:16.135Z,21.80
2022-08-20T18:23:52.800Z,21.80
2022-08-20T18:26:27.526Z,21.70
2022-08-20T18:29:00.636Z,21.60
2022-08-20T18:31:33.255Z,21.60
2022-08-20T18:34:13.685Z,21.50
2022-08-20T18:36:42.549Z,21.50
2022-08-20T18:39:28.292Z,21.40
2022-08-20T18:42:06.065Z,21.40
2022-08-20T18:44:44.052Z,21.50
2022-08-20T18:47:23.689Z,21.40
2022-08-20T18:50:04.142Z,21.30
2022-08-20T18:52:36.472Z,21.20
2022-08-20T18:55:10.752Z,21.20
2022-08-20T18:57:54.008Z,21.10
2022-08-20T19:00:28.694Z,21.00
2022-08-20T19:03:13.439Z,21.00
2022-08-20T19:05:55.840Z,20.90
2022-08-20T19:08:33.125Z,20.80
2022-08-20T19:11:17.720Z,20.70
2022-08-20T19:14:12.415Z,20.70
2022-08-20T19:16:44.902Z,20.70
2022-08-20T19:19:18.354Z,20.70
2022-08-20T19:21:48.839Z,20.70
